createdAt,value
2017-10-20T00:00:37.700Z,1008.44
2017-10-20T00:01:37.688Z,1008.49
2017-10-20T00:02:37.675Z,1008.51
2017-10-20T00:03:37.660Z,1008.47
2017-10-20T00:04:37.648Z,1008.47
2017-10-20T00:05:37.635Z,1008.44
2017-10-20T00:06:37.621Z,1008.42
2017-10-20T00:07:37.607Z,1008.41
2017-10-20T00:08:37.595Z,1008.42
2017-10-20T00:09:37.586Z,1008.43
2017-10-20T00:10:37.569Z,1008.42
2017-10-20T00:11:37.555Z,1008.43
2017-10-20T00:12:37.542Z,1008.42
2017-10-20T00:13:37.530Z,1008.42
2017-10-20T00:14:37.516Z,1008.40
2017-10-20T00:15:37.501Z,1008.41
2017-10-20T00:16:37.489Z,1008.34
2017-10-20T00:17:37.476Z,1008.40
2017-10-20T00:18:37.463Z,1008.44
2017-10-20T00:19:37.449Z,1008.48
2017-10-20T00:20:37.436Z,1008.44
2017-10-20T00:21:37.424Z,1008.42
2017-10-20T00:22:37.438Z,1008.44
2017-10-20T00:23:37.396Z,1008.44
2017-10-20T00:24:37.382Z,1008.39
2017-10-20T00:25:37.370Z,1008.37
2017-10-20T00:26:37.357Z,1008.44
2017-10-20T00:27:37.343Z,1008.48
2017-10-20T00:28:37.330Z,1008.51
2017-10-20T00:29:37.317Z,1008.56
2017-10-20T00:30:37.304Z,1008.59
2017-10-20T00:31:37.289Z,1008.59
2017-10-20T00:32:37.278Z,1008.57
2017-10-20T00:33:37.267Z,1008.63
2017-10-20T00:34:37.251Z,1008.56
2017-10-20T00:35:37.237Z,1008.57
2017-10-20T00:36:37.224Z,1008.50
2017-10-20T00:37:37.211Z,1008.53
2017-10-20T00:38:37.198Z,1008.54
2017-10-20T00:39:37.184Z,1008.54
2017-10-20T00:40:37.171Z,1008.63
2017-10-20T00:41:37.158Z,1008.68
2017-10-20T00:42:37.147Z,1008.59
2017-10-20T00:43:37.131Z,1008.61
2017-10-20T00:44:37.118Z,1008.59
2017-10-20T00:45:37.106Z,1008.61
2017-10-20T00:46:37.092Z,1008.57
2017-10-20T00:47:37.077Z,1008.59
2017-10-20T00:48:37.065Z,1008.58
2017-10-20T00:49:37.052Z,1008.57
2017-10-20T00:50:37.039Z,1008.63
2017-10-20T00:51:37.030Z,1008.58
2017-10-20T00:52:37.011Z,1008.57
2017-10-20T00:53:36.999Z,1008.55
2017-10-20T00:54:36.985Z,1008.53
2017-10-20T00:55:36.972Z,1008.52
2017-10-20T00:56:36.958Z,1008.52
2017-10-20T00:57:36.946Z,1008.51
2017-10-20T00:58:36.931Z,1008.51
2017-10-20T00:59:36.918Z,1008.52
2017-10-20T01:00:36.904Z,1008.53
2017-10-20T01:01:36.891Z,1008.47
2017-10-20T01:02:36.878Z,1008.49
2017-10-20T01:03:36.865Z,1008.48
2017-10-20T01:04:36.851Z,1008.39
2017-10-20T01:05:36.838Z,1008.45
2017-10-20T01:06:36.824Z,1008.42
2017-10-20T01:07:36.811Z,1008.42
2017-10-20T01:08:36.799Z,1008.42
2017-10-20T01:09:36.784Z,1008.39
2017-10-20T01:10:36.771Z,1008.46
2017-10-20T01:11:36.756Z,1008.36
2017-10-20T01:12:36.743Z,1008.36
2017-10-20T01:13:36.730Z,1008.33
2017-10-20T01:14:36.717Z,1008.35
2017-10-20T01:15:36.703Z,1008.36
2017-10-20T01:16:36.689Z,1008.30
2017-10-20T01:17:36.677Z,1008.26
2017-10-20T01:18:36.664Z,1008.28
2017-10-20T01:19:36.649Z,1008.30
2017-10-20T01:20:36.636Z,1008.28
2017-10-20T01:21:36.623Z,1008.27
2017-10-20T01:22:36.609Z,1008.29
2017-10-20T01:23:36.599Z,1008.23
2017-10-20T01:24:36.583Z,1008.20
2017-10-20T01:25:36.569Z,1008.19
2017-10-20T01:26:36.556Z,1008.20
2017-10-20T01:27:36.545Z,1008.19
2017-10-20T01:28:36.528Z,1008.18
2017-10-20T01:29:36.515Z,1008.17
2017-10-20T01:30:36.502Z,1008.23
2017-10-20T01:31:36.487Z,1008.20
2017-10-20T01:32:36.474Z,1008.16
2017-10-20T01:33:36.461Z,1008.14
2017-10-20T01:34:36.447Z,1008.09
2017-10-20T01:35:36.433Z,1008.10
2017-10-20T01:36:36.420Z,1008.09
2017-10-20T01:37:36.406Z,1008.16
2017-10-20T01:38:36.394Z,1008.11
2017-10-20T01:39:36.383Z,1008.08
2017-10-20T01:40:36.366Z,1008.07
2017-10-20T01:41:36.352Z,1008.06
2017-10-20T01:42:36.339Z,1008.11
2017-10-20T01:43:36.324Z,1008.08
2017-10-20T01:44:36.317Z,1008.08
2017-10-20T01:45:36.298Z,1008.07
2017-10-20T01:46:36.285Z,1008.11
2017-10-20T01:47:36.275Z,1008.07
2017-10-20T01:48:36.257Z,1008.09
2017-10-20T01:49:36.248Z,1008.10
2017-10-20T01:50:36.233Z,1008.05
2017-10-20T01:51:36.217Z,1008.02
2017-10-20T01:52:36.203Z,1008.01
2017-10-20T01:53:36.190Z,1008.00
2017-10-20T01:54:36.176Z,1007.97
2017-10-20T01:55:36.162Z,1007.96
2017-10-20T01:56:36.150Z,1008.03
2017-10-20T01:57:36.136Z,1008.05
2017-10-20T01:58:36.122Z,1008.09
2017-10-20T01:59:36.109Z,1008.08
2017-10-20T02:00:36.095Z,1008.08
2017-10-20T02:01:36.081Z,1008.04
2017-10-20T02:02:36.069Z,1008.00
2017-10-20T02:03:36.054Z,1007.96
2017-10-20T02:04:36.041Z,1007.95
2017-10-20T02:05:36.028Z,1007.98
2017-10-20T02:06:36.016Z,1007.91
2017-10-20T02:07:36.005Z,1007.92
2017-10-20T02:08:35.987Z,1007.94
2017-10-20T02:09:35.975Z,1007.92
2017-10-20T02:10:35.960Z,1007.89
2017-10-20T02:11:35.946Z,1007.97
2017-10-20T02:12:35.932Z,1007.96
2017-10-20T02:13:35.918Z,1008.01
2017-10-20T02:14:35.907Z,1007.97
2017-10-20T02:15:35.892Z,1007.99
2017-10-20T02:16:35.879Z,1008.07
2017-10-20T02:17:35.866Z,1008.07
2017-10-20T02:18:35.851Z,1008.04
2017-10-20T02:19:35.839Z,1008.02
2017-10-20T02:20:35.825Z,1008.00
2017-10-20T02:21:35.811Z,1007.97
2017-10-20T02:22:35.798Z,1008.01
2017-10-20T02:23:35.784Z,1008.01
2017-10-20T02:24:35.771Z,1007.98
2017-10-20T02:25:35.757Z,1007.96
2017-10-20T02:26:35.744Z,1007.95
2017-10-20T02:27:35.731Z,1007.87
2017-10-20T02:28:35.717Z,1007.86
2017-10-20T02:29:35.703Z,1007.88
2017-10-20T02:30:35.690Z,1007.93
2017-10-20T02:31:35.676Z,1007.96
2017-10-20T02:32:35.662Z,1007.91
2017-10-20T02:33:35.649Z,1007.86
2017-10-20T02:34:35.639Z,1007.86
2017-10-20T02:35:35.621Z,1007.85
2017-10-20T02:36:35.608Z,1007.78
2017-10-20T02:37:35.595Z,1007.77
2017-10-20T02:38:35.583Z,1007.73
2017-10-20T02:39:35.567Z,1007.70
2017-10-20T02:40:35.553Z,1007.69
2017-10-20T02:41:35.540Z,1007.71
2017-10-20T02:42:35.527Z,1007.69
2017-10-20T02:43:35.512Z,1007.69
2017-10-20T02:44:35.499Z,1007.73
2017-10-20T02:45:35.485Z,1007.70
2017-10-20T02:46:35.472Z,1007.68
2017-10-20T02:47:35.459Z,1007.58
2017-10-20T02:48:35.444Z,1007.55
2017-10-20T02:49:35.431Z,1007.57
2017-10-20T02:50:35.418Z,1007.57
2017-10-20T02:51:35.404Z,1007.57
2017-10-20T02:52:35.390Z,1007.58
2017-10-20T02:53:35.377Z,1007.57
2017-10-20T02:54:35.363Z,1007.60
2017-10-20T02:55:35.349Z,1007.61
2017-10-20T02:56:35.335Z,1007.55
2017-10-20T02:57:35.322Z,1007.57
2017-10-20T02:58:35.309Z,1007.55
2017-10-20T02:59:35.294Z,1007.59
2017-10-20T03:00:35.281Z,1007.59
2017-10-20T03:01:35.268Z,1007.57
2017-10-20T03:02:35.256Z,1007.64
2017-10-20T03:03:35.240Z,1007.62
2017-10-20T03:04:35.227Z,1007.58
2017-10-20T03:05:35.213Z,1007.61
2017-10-20T03:06:35.200Z,1007.56
2017-10-20T03:07:35.185Z,1007.52
2017-10-20T03:08:35.173Z,1007.56
2017-10-20T03:09:35.158Z,1007.54
2017-10-20T03:10:35.145Z,1007.52
2017-10-20T03:11:35.131Z,1007.51
2017-10-20T03:12:35.117Z,1007.54
2017-10-20T03:13:35.104Z,1007.54
2017-10-20T03:14:35.091Z,1007.56
2017-10-20T03:15:35.076Z,1007.57
2017-10-20T03:16:35.062Z,1007.56
2017-10-20T03:17:35.049Z,1007.54
2017-10-20T03:18:35.036Z,1007.53
2017-10-20T03:19:35.022Z,1007.53
2017-10-20T03:20:35.008Z,1007.49
2017-10-20T03:21:34.994Z,1007.44
2017-10-20T03:22:34.980Z,1007.50
2017-10-20T03:23:34.967Z,1007.44
2017-10-20T03:24:34.953Z,1007.51
2017-10-20T03:25:34.942Z,1007.48
2017-10-20T03:26:34.926Z,1007.49
2017-10-20T03:27:34.913Z,1007.49
2017-10-20T03:28:34.899Z,1007.46
2017-10-20T03:29:34.886Z,1007.49
2017-10-20T03:30:34.873Z,1007.44
2017-10-20T03:31:34.858Z,1007.47
2017-10-20T03:32:34.844Z,1007.46
2017-10-20T03:33:34.830Z,1007.45
2017-10-20T03:34:34.818Z,1007.46
2017-10-20T03:35:34.803Z,1007.35
2017-10-20T03:36:34.790Z,1007.36
2017-10-20T03:37:34.776Z,1007.34
2017-10-20T03:38:34.763Z,1007.33
2017-10-20T03:39:34.749Z,1007.34
2017-10-20T03:40:34.735Z,1007.35
2017-10-20T03:41:34.722Z,1007.32
2017-10-20T03:42:34.708Z,1007.38
2017-10-20T03:43:34.693Z,1007.33
2017-10-20T03:44:34.680Z,1007.33
2017-10-20T03:45:34.669Z,1007.32
2017-10-20T03:46:34.653Z,1007.32
2017-10-20T03:47:34.640Z,1007.30
2017-10-20T03:48:34.626Z,1007.25
2017-10-20T03:49:34.612Z,1007.27
2017-10-20T03:50:34.598Z,1007.26
2017-10-20T03:51:34.583Z,1007.23
2017-10-20T03:52:34.570Z,1007.26
2017-10-20T03:53:34.557Z,1007.24
2017-10-20T03:54:34.544Z,1007.24
2017-10-20T03:55:34.530Z,1007.23
2017-10-20T03:56:34.516Z,1007.27
2017-10-20T03:57:34.503Z,1007.29
2017-10-20T03:58:34.489Z,1007.26
2017-10-20T03:59:34.474Z,1007.24
2017-10-20T04:00:34.463Z,1007.18
2017-10-20T04:01:34.448Z,1007.21
2017-10-20T04:02:34.434Z,1007.20
2017-10-20T04:03:34.419Z,1007.20
2017-10-20T04:04:34.406Z,1007.21
2017-10-20T04:05:34.393Z,1007.17
2017-10-20T04:06:34.380Z,1007.12
2017-10-20T04:07:34.365Z,1007.12
2017-10-20T04:08:34.351Z,1007.11
2017-10-20T04:09:34.338Z,1007.15
2017-10-20T04:10:34.325Z,1007.15
2017-10-20T04:11:34.310Z,1007.13
2017-10-20T04:12:34.304Z,1007.14
2017-10-20T04:13:34.282Z,1007.16
2017-10-20T04:14:34.270Z,1007.17
2017-10-20T04:15:34.255Z,1007.18
2017-10-20T04:16:34.242Z,1007.17
2017-10-20T04:17:34.231Z,1007.18
2017-10-20T04:18:34.219Z,1007.16
2017-10-20T04:19:34.201Z,1007.20
2017-10-20T04:20:34.188Z,1007.22
2017-10-20T04:21:34.173Z,1007.22
2017-10-20T04:22:34.160Z,1007.16
2017-10-20T04:23:34.146Z,1007.17
2017-10-20T04:24:34.133Z,1007.14
2017-10-20T04:25:34.125Z,1007.14
2017-10-20T04:26:34.105Z,1007.11
2017-10-20T04:27:34.091Z,1007.09
2017-10-20T04:28:34.078Z,1007.02
2017-10-20T04:29:34.065Z,1006.98
2017-10-20T04:30:34.051Z,1006.94
2017-10-20T04:31:34.036Z,1006.92
2017-10-20T04:32:34.023Z,1006.88
2017-10-20T04:33:34.010Z,1006.82
2017-10-20T04:34:33.996Z,1006.79
2017-10-20T04:35:33.982Z,1006.80
2017-10-20T04:36:33.971Z,1006.76
2017-10-20T04:37:33.957Z,1006.85
2017-10-20T04:38:33.941Z,1006.78
2017-10-20T04:39:33.927Z,1006.81
2017-10-20T04:40:33.914Z,1006.81
2017-10-20T04:41:33.906Z,1006.77
2017-10-20T04:42:33.887Z,1006.84
2017-10-20T04:43:33.870Z,1006.81
2017-10-20T04:44:33.858Z,1006.83
2017-10-20T04:45:33.859Z,1006.87
2017-10-20T04:46:33.831Z,1006.92
2017-10-20T04:47:33.817Z,1006.95
2017-10-20T04:48:33.804Z,1006.97
2017-10-20T04:49:33.790Z,1006.92
2017-10-20T04:50:33.777Z,1006.88
2017-10-20T04:51:33.763Z,1006.86
2017-10-20T04:52:33.773Z,1006.89
2017-10-20T04:53:33.735Z,1006.83
2017-10-20T04:54:33.722Z,1006.83
2017-10-20T04:55:33.707Z,1006.86
2017-10-20T04:56:33.694Z,1006.92
2017-10-20T04:57:33.680Z,1006.98
2017-10-20T04:58:33.666Z,1006.92
2017-10-20T04:59:33.652Z,1006.86
2017-10-20T05:00:33.638Z,1006.82
2017-10-20T05:01:33.625Z,1006.84
2017-10-20T05:02:33.611Z,1006.82
2017-10-20T05:03:33.597Z,1006.77
2017-10-20T05:04:33.584Z,1006.75
2017-10-20T05:05:33.569Z,1006.74
2017-10-20T05:06:33.556Z,1006.71
2017-10-20T05:07:33.542Z,1006.71
2017-10-20T05:08:33.533Z,1006.69
2017-10-20T05:09:33.515Z,1006.68
2017-10-20T05:10:33.501Z,1006.71
2017-10-20T05:11:33.486Z,1006.69
2017-10-20T05:12:33.473Z,1006.68
2017-10-20T05:13:33.460Z,1006.70
2017-10-20T05:14:33.446Z,1006.66
2017-10-20T05:15:33.432Z,1006.70
2017-10-20T05:16:33.419Z,1006.70
2017-10-20T05:17:33.404Z,1006.70
2017-10-20T05:18:33.397Z,1006.68
2017-10-20T05:19:33.377Z,1006.67
2017-10-20T05:20:33.364Z,1006.68
2017-10-20T05:21:33.350Z,1006.66
2017-10-20T05:22:33.337Z,1006.61
2017-10-20T05:23:33.324Z,1006.64
2017-10-20T05:24:33.309Z,1006.62
2017-10-20T05:25:33.295Z,1006.57
2017-10-20T05:26:33.282Z,1006.54
2017-10-20T05:27:33.267Z,1006.53
2017-10-20T05:28:33.257Z,1006.47
2017-10-20T05:29:33.240Z,1006.46
2017-10-20T05:30:33.227Z,1006.45
2017-10-20T05:31:33.213Z,1006.41
2017-10-20T05:32:33.199Z,1006.36
2017-10-20T05:33:33.184Z,1006.40
2017-10-20T05:34:33.173Z,1006.32
2017-10-20T05:35:33.158Z,1006.30
2017-10-20T05:36:33.144Z,1006.31
2017-10-20T05:37:33.131Z,1006.32
2017-10-20T05:38:33.118Z,1006.29
2017-10-20T05:39:33.103Z,1006.29
2017-10-20T05:40:33.089Z,1006.30
2017-10-20T05:41:33.077Z,1006.28
2017-10-20T05:42:33.062Z,1006.26
2017-10-20T05:43:33.051Z,1006.22
2017-10-20T05:44:33.035Z,1006.19
2017-10-20T05:45:33.021Z,1006.27
2017-10-20T05:46:33.008Z,1006.27
2017-10-20T05:47:32.993Z,1006.25
2017-10-20T05:48:32.980Z,1006.24
2017-10-20T05:49:32.967Z,1006.31
2017-10-20T05:50:32.953Z,1006.33
2017-10-20T05:51:32.939Z,1006.42
2017-10-20T05:52:32.925Z,1006.44
2017-10-20T05:53:32.912Z,1006.46
2017-10-20T05:54:32.899Z,1006.51
2017-10-20T05:55:32.884Z,1006.50
2017-10-20T05:56:32.871Z,1006.53
2017-10-20T05:57:32.859Z,1006.46
2017-10-20T05:58:32.845Z,1006.46
2017-10-20T05:59:32.830Z,1006.47
2017-10-20T06:00:32.817Z,1006.44
2017-10-20T06:01:32.804Z,1006.41
2017-10-20T06:02:32.790Z,1006.44
2017-10-20T06:03:32.776Z,1006.41
2017-10-20T06:04:32.762Z,1006.37
2017-10-20T06:05:32.750Z,1006.36
2017-10-20T06:06:32.734Z,1006.34
2017-10-20T06:07:32.722Z,1006.38
2017-10-20T06:08:32.708Z,1006.30
2017-10-20T06:09:32.695Z,1006.27
2017-10-20T06:10:32.682Z,1006.31
2017-10-20T06:11:32.667Z,1006.33
2017-10-20T06:12:32.655Z,1006.29
2017-10-20T06:13:32.641Z,1006.30
2017-10-20T06:14:32.627Z,1006.33
2017-10-20T06:15:32.613Z,1006.32
2017-10-20T06:16:32.599Z,1006.19
2017-10-20T06:17:32.586Z,1006.16
2017-10-20T06:18:32.573Z,1006.07
2017-10-20T06:19:32.559Z,1006.02
2017-10-20T06:20:32.546Z,1006.04
2017-10-20T06:21:32.533Z,1006.09
2017-10-20T06:22:32.520Z,1006.15
2017-10-20T06:23:32.505Z,1006.25
2017-10-20T06:24:32.492Z,1006.33
2017-10-20T06:25:32.478Z,1006.31
2017-10-20T06:26:32.463Z,1006.35
2017-10-20T06:27:32.450Z,1006.39
2017-10-20T06:28:32.438Z,1006.36
2017-10-20T06:29:32.424Z,1006.40
2017-10-20T06:30:32.411Z,1006.37
2017-10-20T06:31:32.397Z,1006.34
2017-10-20T06:32:32.383Z,1006.32
2017-10-20T06:33:32.370Z,1006.31
2017-10-20T06:34:32.356Z,1006.31
2017-10-20T06:35:32.343Z,1006.33
2017-10-20T06:36:32.329Z,1006.34
2017-10-20T06:37:32.315Z,1006.44
2017-10-20T06:38:32.303Z,1006.41
2017-10-20T06:39:32.288Z,1006.47
2017-10-20T06:40:32.274Z,1006.47
2017-10-20T06:41:32.262Z,1006.52
2017-10-20T06:42:32.248Z,1006.54
2017-10-20T06:43:32.234Z,1006.55
2017-10-20T06:44:32.220Z,1006.50
2017-10-20T06:45:32.207Z,1006.48
2017-10-20T06:46:32.194Z,1006.54
2017-10-20T06:47:32.179Z,1006.50
2017-10-20T06:48:32.165Z,1006.53
2017-10-20T06:49:32.153Z,1006.56
2017-10-20T06:50:32.139Z,1006.53
2017-10-20T06:51:32.125Z,1006.59
2017-10-20T06:52:32.112Z,1006.58
2017-10-20T06:53:32.099Z,1006.66
2017-10-20T06:54:32.085Z,1006.66
2017-10-20T06:55:32.071Z,1006.67
2017-10-20T06:56:32.057Z,1006.68
2017-10-20T06:57:32.043Z,1006.67
2017-10-20T06:58:32.037Z,1006.74
2017-10-20T06:59:32.016Z,1006.75
2017-10-20T07:00:32.003Z,1006.74
2017-10-20T07:01:31.993Z,1006.79
2017-10-20T07:02:31.976Z,1006.80
2017-10-20T07:03:31.961Z,1006.83
2017-10-20T07:04:31.948Z,1006.80
2017-10-20T07:05:31.935Z,1006.76
2017-10-20T07:06:31.921Z,1006.66
2017-10-20T07:07:31.914Z,1006.44
2017-10-20T07:08:31.894Z,1006.46
2017-10-20T07:09:31.880Z,1006.54
2017-10-20T07:10:31.867Z,1006.60
2017-10-20T07:11:31.852Z,1006.67
2017-10-20T07:12:31.839Z,1006.75
2017-10-20T07:13:31.826Z,1006.80
2017-10-20T07:14:31.814Z,1006.85
2017-10-20T07:15:31.798Z,1006.95
2017-10-20T07:16:31.785Z,1007.01
2017-10-20T07:17:31.778Z,1007.02
2017-10-20T07:18:31.758Z,1007.04
2017-10-20T07:19:31.744Z,1006.98
2017-10-20T07:20:31.730Z,1007.04
2017-10-20T07:21:31.721Z,1007.13
2017-10-20T07:22:31.703Z,1007.18
2017-10-20T07:23:31.689Z,1007.23
2017-10-20T07:24:31.676Z,1007.26
2017-10-20T07:25:31.663Z,1007.31
2017-10-20T07:26:31.650Z,1007.34
2017-10-20T07:27:31.635Z,1007.33
2017-10-20T07:28:31.625Z,1007.34
2017-10-20T07:29:31.608Z,1007.31
2017-10-20T07:30:31.596Z,1007.15
2017-10-20T07:31:31.580Z,1007.27
2017-10-20T07:32:31.567Z,1007.32
2017-10-20T07:33:31.554Z,1007.26
2017-10-20T07:34:31.541Z,1007.34
2017-10-20T07:35:31.526Z,1007.32
2017-10-20T07:36:31.513Z,1007.37
2017-10-20T07:37:31.499Z,1007.38
2017-10-20T07:38:31.485Z,1007.33
2017-10-20T07:39:31.472Z,1007.28
2017-10-20T07:40:31.459Z,1007.33
2017-10-20T07:41:31.444Z,1007.33
2017-10-20T07:42:31.433Z,1007.26
2017-10-20T07:43:31.418Z,1007.31
2017-10-20T07:44:31.419Z,1007.32
2017-10-20T07:45:31.391Z,1007.30
2017-10-20T07:46:31.378Z,1007.31
2017-10-20T07:47:31.363Z,1007.32
2017-10-20T07:48:31.350Z,1007.34
2017-10-20T07:49:31.336Z,1007.30
2017-10-20T07:50:31.323Z,1007.28
2017-10-20T07:51:31.310Z,1007.29
2017-10-20T07:52:31.307Z,1007.36
2017-10-20T07:53:31.283Z,1007.36
2017-10-20T07:54:31.270Z,1007.38
2017-10-20T07:55:31.258Z,1007.43
2017-10-20T07:56:31.243Z,1007.49
2017-10-20T07:57:31.229Z,1007.52
2017-10-20T07:58:31.216Z,1007.49
2017-10-20T07:59:31.201Z,1007.54
2017-10-20T08:00:31.189Z,1007.55
2017-10-20T08:01:31.175Z,1007.61
2017-10-20T08:02:31.162Z,1007.64
2017-10-20T08:03:31.147Z,1007.63
2017-10-20T08:04:31.134Z,1007.62
2017-10-20T08:05:31.121Z,1007.65
2017-10-20T08:06:31.108Z,1007.64
2017-10-20T08:07:31.092Z,1007.67
2017-10-20T08:08:31.079Z,1007.63
2017-10-20T08:09:31.071Z,1007.63
2017-10-20T08:10:31.054Z,1007.69
2017-10-20T08:11:31.045Z,1007.67
2017-10-20T08:12:31.025Z,1007.76
2017-10-20T08:13:31.013Z,1007.70
2017-10-20T08:14:31.000Z,1007.70
2017-10-20T08:15:30.985Z,1007.68
2017-10-20T08:16:30.973Z,1007.74
2017-10-20T08:17:30.960Z,1007.70
2017-10-20T08:18:30.953Z,1007.71
2017-10-20T08:19:30.982Z,1007.76
2017-10-20T08:20:30.919Z,1007.70
2017-10-20T08:21:30.907Z,1007.78
2017-10-20T08:22:30.892Z,1007.84
2017-10-20T08:23:30.878Z,1007.87
2017-10-20T08:24:30.865Z,1007.88
2017-10-20T08:25:30.852Z,1007.87
2017-10-20T08:26:30.839Z,1007.90
2017-10-20T08:27:30.825Z,1007.89
2017-10-20T08:28:30.819Z,1007.92
2017-10-20T08:29:30.799Z,1007.91
2017-10-20T08:30:30.784Z,1007.91
2017-10-20T08:31:30.772Z,1007.90
2017-10-20T08:32:30.758Z,1007.94
2017-10-20T08:33:30.745Z,1007.92
2017-10-20T08:34:30.732Z,1007.89
2017-10-20T08:35:30.717Z,1007.95
2017-10-20T08:36:30.714Z,1007.92
2017-10-20T08:37:30.691Z,1007.97
2017-10-20T08:38:30.678Z,1007.98
2017-10-20T08:39:30.715Z,1007.98
2017-10-20T08:40:30.650Z,1008.01
2017-10-20T08:41:30.638Z,1008.01
2017-10-20T08:42:30.626Z,1008.01
2017-10-20T08:43:30.611Z,1007.99
2017-10-20T08:44:30.598Z,1008.04
2017-10-20T08:45:30.585Z,1008.00
2017-10-20T08:46:30.572Z,1008.03
2017-10-20T08:47:30.557Z,1008.05
2017-10-20T08:48:30.546Z,1007.97
2017-10-20T08:49:30.532Z,1008.05
2017-10-20T08:50:30.520Z,1008.02
2017-10-20T08:51:30.521Z,1008.02
2017-10-20T08:52:30.492Z,1008.02
2017-10-20T08:53:30.479Z,1007.98
2017-10-20T08:54:30.468Z,1008.00
2017-10-20T08:55:30.453Z,1007.96
2017-10-20T08:56:30.441Z,1008.00
2017-10-20T08:57:30.427Z,1008.03
2017-10-20T08:58:30.416Z,1007.99
2017-10-20T08:59:30.401Z,1008.04
2017-10-20T09:00:30.388Z,1008.01
2017-10-20T09:01:30.375Z,1008.04
2017-10-20T09:02:30.363Z,1008.05
2017-10-20T09:03:30.349Z,1007.98
2017-10-20T09:04:30.336Z,1008.02
2017-10-20T09:05:30.324Z,1008.00
2017-10-20T09:06:30.311Z,1008.03
2017-10-20T09:07:30.296Z,1008.07
2017-10-20T09:08:30.284Z,1008.06
2017-10-20T09:09:30.276Z,1008.02
2017-10-20T09:10:30.258Z,1008.12
2017-10-20T09:11:30.245Z,1008.09
2017-10-20T09:12:30.235Z,1008.15
2017-10-20T09:13:30.220Z,1008.14
2017-10-20T09:14:30.207Z,1008.10
2017-10-20T09:15:30.194Z,1008.06
2017-10-20T09:16:30.181Z,1008.12
2017-10-20T09:17:30.168Z,1008.22
2017-10-20T09:18:30.155Z,1008.09
2017-10-20T09:19:30.303Z,1008.15
2017-10-20T09:20:30.130Z,1008.09
2017-10-20T09:21:30.118Z,1008.11
2017-10-20T09:22:30.106Z,1008.11
2017-10-20T09:23:30.093Z,1008.13
2017-10-20T09:24:30.080Z,1008.15
2017-10-20T09:25:30.069Z,1008.11
2017-10-20T09:26:30.056Z,1008.13
2017-10-20T09:27:30.043Z,1008.16
2017-10-20T09:28:30.032Z,1008.11
2017-10-20T09:29:30.019Z,1008.13
2017-10-20T09:30:30.008Z,1008.20
2017-10-20T09:31:29.993Z,1008.24
2017-10-20T09:32:29.988Z,1008.22
2017-10-20T09:33:29.972Z,1008.20
2017-10-20T09:34:29.959Z,1008.22
2017-10-20T09:35:29.943Z,1008.23
2017-10-20T09:36:29.934Z,1008.26
2017-10-20T09:37:29.921Z,1008.26
2017-10-20T09:38:29.909Z,1008.23
2017-10-20T09:39:29.897Z,1008.24
2017-10-20T09:40:29.884Z,1008.15
2017-10-20T09:41:29.873Z,1008.25
2017-10-20T09:42:29.861Z,1008.23
2017-10-20T09:43:29.848Z,1008.23
2017-10-20T09:44:29.837Z,1008.24
2017-10-20T09:45:29.826Z,1008.26
2017-10-20T09:46:29.814Z,1008.24
2017-10-20T09:47:29.801Z,1008.26
2017-10-20T09:48:29.790Z,1008.24
2017-10-20T09:49:29.779Z,1008.26
2017-10-20T09:50:29.767Z,1008.25
2017-10-20T09:51:29.756Z,1008.28
2017-10-20T09:52:29.744Z,1008.23
2017-10-20T09:53:29.733Z,1008.37
2017-10-20T09:54:29.722Z,1008.25
2017-10-20T09:55:29.710Z,1008.31
2017-10-20T09:56:29.705Z,1008.24
2017-10-20T09:57:29.688Z,1008.33
2017-10-20T09:58:29.678Z,1008.38
2017-10-20T09:59:29.665Z,1008.31
2017-10-20T10:00:29.653Z,1008.32
2017-10-20T10:01:29.642Z,1008.30
2017-10-20T10:02:29.631Z,1008.34
2017-10-20T10:03:29.620Z,1008.37
2017-10-20T10:04:29.609Z,1008.26
2017-10-20T10:05:29.597Z,1008.34
2017-10-20T10:06:29.587Z,1008.32
2017-10-20T10:07:29.575Z,1008.39
2017-10-20T10:08:29.567Z,1008.42
2017-10-20T10:09:29.552Z,1008.38
2017-10-20T10:10:29.543Z,1008.42
2017-10-20T10:11:29.536Z,1008.45
2017-10-20T10:12:29.520Z,1008.51
2017-10-20T10:13:29.510Z,1008.51
2017-10-20T10:14:29.498Z,1008.55
2017-10-20T10:15:29.487Z,1008.56
2017-10-20T10:16:29.477Z,1008.59
2017-10-20T10:17:29.465Z,1008.59
2017-10-20T10:18:29.457Z,1008.61
2017-10-20T10:19:29.443Z,1008.60
2017-10-20T10:20:29.431Z,1008.62
2017-10-20T10:21:29.420Z,1008.63
2017-10-20T10:22:29.408Z,1008.67
2017-10-20T10:23:29.398Z,1008.65
2017-10-20T10:24:29.385Z,1008.67
2017-10-20T10:25:29.375Z,1008.63
2017-10-20T10:26:29.364Z,1008.61
2017-10-20T10:27:29.352Z,1008.61
2017-10-20T10:28:29.347Z,1008.59
2017-10-20T10:29:29.329Z,1008.60
2017-10-20T10:30:29.318Z,1008.62
2017-10-20T10:31:29.305Z,1008.66
2017-10-20T10:32:29.294Z,1008.52
2017-10-20T10:33:29.284Z,1008.57
2017-10-20T10:34:29.271Z,1008.64
2017-10-20T10:35:29.259Z,1008.71
2017-10-20T10:36:29.247Z,1008.70
2017-10-20T10:37:29.236Z,1008.71
2017-10-20T10:38:29.229Z,1008.73
2017-10-20T10:39:29.214Z,1008.83
2017-10-20T10:40:29.201Z,1008.81
2017-10-20T10:41:29.191Z,1008.69
2017-10-20T10:42:29.182Z,1008.79
2017-10-20T10:43:29.169Z,1008.78
2017-10-20T10:44:29.161Z,1008.79
2017-10-20T10:45:29.146Z,1008.78
2017-10-20T10:46:29.135Z,1008.78
2017-10-20T10:47:29.123Z,1008.73
2017-10-20T10:48:29.112Z,1008.80
2017-10-20T10:49:29.101Z,1008.86
2017-10-20T10:50:29.094Z,1008.81
2017-10-20T10:51:29.078Z,1008.89
2017-10-20T10:52:29.067Z,1008.84
2017-10-20T10:53:29.056Z,1008.89
2017-10-20T10:54:29.044Z,1008.87
2017-10-20T10:55:29.031Z,1008.85
2017-10-20T10:56:29.026Z,1008.88
2017-10-20T10:57:29.011Z,1008.89
2017-10-20T10:58:28.999Z,1008.90
2017-10-20T10:59:28.986Z,1008.90
2017-10-20T11:00:28.975Z,1008.90
2017-10-20T11:01:28.964Z,1008.93
2017-10-20T11:02:28.957Z,1008.96
2017-10-20T11:03:28.940Z,1008.94
2017-10-20T11:04:28.935Z,1008.89
2017-10-20T11:05:28.917Z,1008.85
2017-10-20T11:06:28.905Z,1008.82
2017-10-20T11:07:28.893Z,1008.84
2017-10-20T11:08:28.882Z,1008.86
2017-10-20T11:09:28.871Z,1008.87
2017-10-20T11:10:28.858Z,1008.83
2017-10-20T11:11:28.844Z,1008.82
2017-10-20T11:12:28.844Z,1008.82
2017-10-20T11:13:28.821Z,1008.82
2017-10-20T11:14:28.818Z,1008.84
2017-10-20T11:15:28.797Z,1008.86
2017-10-20T11:16:28.786Z,1008.82
2017-10-20T11:17:28.779Z,1008.89
2017-10-20T11:18:28.762Z,1008.81
2017-10-20T11:19:28.749Z,1008.80
2017-10-20T11:20:28.737Z,1008.78
2017-10-20T11:21:28.726Z,1008.79
2017-10-20T11:22:28.715Z,1008.82
2017-10-20T11:23:28.702Z,1008.82
2017-10-20T11:24:28.691Z,1008.77
2017-10-20T11:25:28.679Z,1008.74
2017-10-20T11:26:28.668Z,1008.76
2017-10-20T11:27:28.655Z,1008.77
2017-10-20T11:28:28.644Z,1008.82
2017-10-20T11:29:28.633Z,1008.73
2017-10-20T11:30:28.623Z,1008.67
2017-10-20T11:31:28.611Z,1008.71
2017-10-20T11:32:28.598Z,1008.82
2017-10-20T11:33:28.587Z,1008.74
2017-10-20T11:34:28.576Z,1008.78
2017-10-20T11:35:28.569Z,1008.89
2017-10-20T11:36:28.553Z,1008.77
2017-10-20T11:37:28.541Z,1008.80
2017-10-20T11:38:28.542Z,1008.90
2017-10-20T11:39:28.518Z,1008.85
2017-10-20T11:40:28.528Z,1008.84
2017-10-20T11:41:28.496Z,1008.79
2017-10-20T11:42:28.484Z,1008.79
2017-10-20T11:43:28.471Z,1008.84
2017-10-20T11:44:28.460Z,1008.82
2017-10-20T11:45:28.448Z,1008.89
2017-10-20T11:46:28.437Z,1008.88
2017-10-20T11:47:28.425Z,1008.89
2017-10-20T11:48:28.413Z,1008.79
2017-10-20T11:49:28.402Z,1008.90
2017-10-20T11:50:28.390Z,1008.91
2017-10-20T11:51:28.377Z,1009.03
2017-10-20T11:52:28.366Z,1008.97
2017-10-20T11:53:28.354Z,1008.99
2017-10-20T11:54:28.342Z,1009.01
2017-10-20T11:55:28.329Z,1009.01
2017-10-20T11:56:28.318Z,1009.11
2017-10-20T11:57:28.306Z,1009.10
2017-10-20T11:58:28.294Z,1008.99
2017-10-20T11:59:28.283Z,1009.06
2017-10-20T12:00:28.274Z,1009.05
2017-10-20T12:01:28.257Z,1009.09
2017-10-20T12:02:28.245Z,1009.03
2017-10-20T12:03:28.232Z,1009.07
2017-10-20T12:04:28.220Z,1009.09
2017-10-20T12:05:28.252Z,1009.08